createdAt,value
2018-08-17T00:01:11.415Z,17.30
2018-08-17T00:03:39.660Z,17.40
2018-08-17T00:06:07.712Z,17.40
2018-08-17T00:08:35.910Z,17.50
2018-08-17T00:11:04.076Z,17.50
2018-08-17T00:13:32.128Z,17.50
2018-08-17T00:16:00.325Z,17.50
2018-08-17T00:18:28.501Z,17.60
2018-08-17T00:20:56.745Z,17.50
2018-08-17T00:23:24.849Z,17.50
2018-08-17T00:25:52.915Z,17.60
2018-08-17T00:28:21.240Z,17.60
2018-08-17T00:30:49.463Z,17.50
2018-08-17T00:33:17.540Z,17.50
2018-08-17T00:35:45.555Z,17.50
2018-08-17T00:38:13.778Z,17.20
2018-08-17T00:40:41.849Z,17.10
2018-08-17T00:43:09.930Z,17.20
2018-08-17T00:45:37.995Z,17.10
2018-08-17T00:48:06.562Z,17.20
2018-08-17T00:50:34.646Z,17.30
2018-08-17T00:53:02.679Z,17.30
2018-08-17T00:55:30.899Z,17.20
2018-08-17T00:57:59.064Z,17.10
2018-08-17T01:00:27.206Z,17.20
2018-08-17T01:02:55.309Z,17.20
2018-08-17T01:05:23.244Z,17.30
2018-08-17T01:07:51.446Z,17.30
2018-08-17T01:10:19.621Z,17.20
2018-08-17T01:12:47.802Z,17.10
2018-08-17T01:15:15.859Z,17.10
2018-08-17T01:17:43.914Z,17.00
2018-08-17T01:20:13.024Z,16.80
2018-08-17T01:22:42.091Z,16.70
2018-08-17T01:25:10.196Z,16.70
2018-08-17T01:27:38.267Z,16.70
2018-08-17T01:30:07.315Z,16.70
2018-08-17T01:32:35.447Z,16.70
2018-08-17T01:35:03.799Z,16.90
2018-08-17T01:37:31.959Z,17.00
2018-08-17T01:40:00.089Z,17.00
2018-08-17T01:42:28.115Z,16.90
2018-08-17T01:44:56.257Z,16.80
2018-08-17T01:47:24.348Z,16.60
2018-08-17T01:49:52.445Z,16.50
2018-08-17T01:52:20.714Z,16.50
2018-08-17T01:54:48.798Z,16.40
2018-08-17T01:57:16.858Z,16.30
2018-08-17T01:59:44.899Z,16.20
2018-08-17T02:02:13.101Z,16.10
2018-08-17T02:04:41.274Z,16.00
2018-08-17T02:07:09.755Z,16.10
2018-08-17T02:09:37.929Z,15.90
2018-08-17T02:12:06.203Z,16.00
2018-08-17T02:14:34.303Z,16.10
2018-08-17T02:17:02.445Z,16.20
2018-08-17T02:19:30.603Z,16.30
2018-08-17T02:21:58.675Z,16.30
2018-08-17T02:24:26.785Z,16.30
2018-08-17T02:26:54.930Z,16.30
2018-08-17T02:29:23.114Z,16.30
2018-08-17T02:31:51.179Z,16.20
2018-08-17T02:34:19.251Z,16.10
2018-08-17T02:36:47.322Z,16.20
2018-08-17T02:39:15.504Z,16.20
2018-08-17T02:41:43.563Z,16.10
2018-08-17T02:44:11.723Z,16.00
2018-08-17T02:46:39.829Z,16.00
2018-08-17T02:49:07.874Z,15.70
2018-08-17T02:51:35.941Z,15.70
2018-08-17T02:54:04.123Z,15.70
2018-08-17T02:56:32.399Z,15.60
2018-08-17T02:59:00.471Z,15.50
2018-08-17T03:01:28.641Z,15.50
2018-08-17T03:03:56.688Z,15.50
2018-08-17T03:06:24.887Z,15.50
2018-08-17T03:08:52.927Z,15.50
2018-08-17T03:11:21.131Z,15.50
2018-08-17T03:13:49.307Z,15.60
2018-08-17T03:16:17.478Z,15.50
2018-08-17T03:18:45.741Z,15.40
2018-08-17T03:21:13.825Z,15.30
2018-08-17T03:23:42.000Z,15.20
2018-08-17T03:26:10.581Z,15.20
2018-08-17T03:28:38.659Z,15.20
2018-08-17T03:31:06.925Z,15.20
2018-08-17T03:33:35.099Z,15.10
2018-08-17T03:36:03.477Z,14.80
2018-08-17T03:38:32.086Z,14.80
2018-08-17T03:41:00.315Z,14.70
2018-08-17T03:43:28.478Z,14.70
2018-08-17T03:45:56.564Z,14.60
2018-08-17T03:48:24.753Z,14.40
2018-08-17T03:50:52.724Z,14.40
2018-08-17T03:53:20.797Z,14.40
2018-08-17T03:55:48.843Z,14.30
2018-08-17T03:58:16.903Z,14.30
2018-08-17T04:00:45.009Z,14.30
2018-08-17T04:03:13.062Z,14.30
2018-08-17T04:05:41.114Z,14.40
2018-08-17T04:08:09.171Z,14.40
2018-08-17T04:10:37.348Z,14.40
2018-08-17T04:13:05.783Z,14.40
2018-08-17T04:15:33.848Z,14.40
2018-08-17T04:18:01.859Z,14.50
2018-08-17T04:20:30.082Z,14.50
2018-08-17T04:22:58.124Z,14.60
2018-08-17T04:25:26.248Z,14.60
2018-08-17T04:27:54.403Z,14.70
2018-08-17T04:30:22.575Z,14.70
2018-08-17T04:32:50.615Z,14.80
2018-08-17T04:35:18.868Z,14.90
2018-08-17T04:37:46.984Z,14.80
2018-08-17T04:40:15.027Z,14.70
2018-08-17T04:42:43.111Z,14.50
2018-08-17T04:45:11.195Z,14.40
2018-08-17T04:47:39.279Z,14.20
2018-08-17T04:50:08.655Z,14.00
2018-08-17T04:52:36.894Z,14.00
2018-08-17T04:55:05.303Z,13.90
2018-08-17T04:57:33.706Z,13.90
2018-08-17T05:00:01.859Z,13.90
2018-08-17T05:02:29.972Z,13.90
2018-08-17T05:04:58.014Z,13.70
2018-08-17T05:07:26.178Z,13.80
2018-08-17T05:09:54.255Z,13.80
2018-08-17T05:12:22.295Z,13.80
2018-08-17T05:14:50.531Z,13.70
2018-08-17T05:17:18.783Z,13.80
2018-08-17T05:19:46.858Z,13.80
2018-08-17T05:22:14.884Z,14.00
2018-08-17T05:24:43.062Z,14.00
2018-08-17T05:27:11.223Z,14.10
2018-08-17T05:29:39.320Z,14.30
2018-08-17T05:32:07.685Z,14.40
2018-08-17T05:34:35.996Z,14.50
2018-08-17T05:37:04.175Z,14.60
2018-08-17T05:39:32.231Z,14.60
2018-08-17T05:42:00.283Z,14.50
2018-08-17T05:44:28.444Z,14.40
2018-08-17T05:46:56.598Z,14.30
2018-08-17T05:49:24.873Z,14.30
2018-08-17T05:51:53.106Z,14.40
2018-08-17T05:54:21.157Z,14.30
2018-08-17T05:56:49.312Z,14.30
2018-08-17T05:59:17.483Z,14.40
2018-08-17T06:01:45.555Z,14.40
2018-08-17T06:04:13.619Z,14.50
2018-08-17T06:06:41.735Z,14.70
2018-08-17T06:09:10.267Z,14.90
2018-08-17T06:11:38.587Z,15.00
2018-08-17T06:14:06.998Z,15.10
2018-08-17T06:16:35.220Z,15.20
2018-08-17T06:19:03.487Z,15.20
2018-08-17T06:21:31.793Z,15.30
2018-08-17T06:23:59.851Z,15.40
2018-08-17T06:26:28.044Z,15.50
2018-08-17T06:28:56.247Z,15.60
2018-08-17T06:31:24.523Z,15.60
2018-08-17T06:33:52.774Z,15.70
2018-08-17T06:36:20.809Z,15.80
2018-08-17T06:38:49.220Z,15.90
2018-08-17T06:41:17.494Z,16.10
2018-08-17T06:43:45.660Z,16.10
2018-08-17T06:46:13.849Z,16.30
2018-08-17T06:48:41.909Z,16.40
2018-08-17T06:51:10.045Z,16.40
2018-08-17T06:53:38.111Z,16.50
2018-08-17T06:56:06.315Z,16.70
2018-08-17T06:58:34.502Z,16.70
2018-08-17T07:01:02.677Z,16.90
2018-08-17T07:03:30.955Z,16.90
2018-08-17T07:05:59.328Z,17.00
2018-08-17T07:08:27.458Z,17.10
2018-08-17T07:10:55.611Z,17.20
2018-08-17T07:13:23.842Z,17.30
2018-08-17T07:15:51.917Z,17.30
2018-08-17T07:18:20.091Z,17.40
2018-08-17T07:20:48.164Z,17.60
2018-08-17T07:23:16.231Z,17.60
2018-08-17T07:25:44.611Z,17.70
2018-08-17T07:28:12.714Z,17.80
2018-08-17T07:30:40.957Z,17.90
2018-08-17T07:33:09.051Z,17.90
2018-08-17T07:35:37.311Z,18.10
2018-08-17T07:38:05.476Z,18.20
2018-08-17T07:40:33.659Z,18.30
2018-08-17T07:43:01.821Z,18.20
2018-08-17T07:45:29.896Z,18.30
2018-08-17T07:47:58.203Z,18.40
2018-08-17T07:50:26.448Z,18.50
2018-08-17T07:52:54.493Z,18.60
2018-08-17T07:55:22.603Z,18.60
2018-08-17T07:57:50.652Z,18.70
2018-08-17T08:00:18.739Z,18.70
2018-08-17T08:02:46.878Z,18.80
2018-08-17T08:05:15.071Z,19.10
2018-08-17T08:07:43.251Z,19.30
2018-08-17T08:10:11.940Z,19.40
2018-08-17T08:12:40.014Z,19.40
2018-08-17T08:15:08.382Z,19.40
2018-08-17T08:17:36.861Z,19.50
2018-08-17T08:20:10.569Z,19.60
2018-08-17T08:22:38.851Z,19.80
2018-08-17T08:25:07.008Z,19.90
2018-08-17T08:27:35.249Z,20.00
2018-08-17T08:30:03.470Z,20.00
2018-08-17T08:32:31.576Z,20.20
2018-08-17T08:34:59.781Z,20.30
2018-08-17T08:37:27.954Z,20.30
2018-08-17T08:39:56.407Z,20.30
2018-08-17T08:42:24.393Z,20.50
2018-08-17T08:44:52.608Z,20.80
2018-08-17T08:47:21.762Z,20.80
2018-08-17T08:49:50.952Z,20.80
2018-08-17T08:52:20.035Z,20.80
2018-08-17T08:54:48.960Z,21.10
2018-08-17T08:57:18.276Z,21.10
2018-08-17T08:59:47.443Z,21.20
2018-08-17T09:02:16.521Z,21.20
2018-08-17T09:04:45.616Z,21.20
2018-08-17T09:07:14.486Z,21.30
2018-08-17T09:09:43.524Z,21.30
2018-08-17T09:12:12.490Z,21.50
2018-08-17T09:14:41.590Z,21.60
2018-08-17T09:17:10.673Z,21.60
2018-08-17T09:19:39.760Z,21.80
2018-08-17T09:22:08.900Z,21.80
2018-08-17T09:24:37.969Z,21.90
2018-08-17T09:27:07.211Z,22.00
2018-08-17T09:29:36.276Z,22.10
2018-08-17T09:32:05.437Z,22.10
2018-08-17T09:34:34.591Z,22.20
2018-08-17T09:37:03.956Z,22.40
2018-08-17T09:39:32.918Z,22.50
2018-08-17T09:42:01.962Z,22.50
2018-08-17T09:44:30.952Z,22.50
2018-08-17T09:47:00.064Z,22.70
2018-08-17T09:49:29.312Z,22.80
2018-08-17T09:51:58.519Z,22.90
2018-08-17T09:54:27.629Z,23.00
2018-08-17T09:56:56.808Z,23.10
2018-08-17T09:59:25.958Z,23.20
2018-08-17T10:02:00.144Z,23.30
2018-08-17T10:04:34.090Z,23.40
2018-08-17T10:07:08.612Z,23.70
2018-08-17T10:09:42.771Z,23.70
2018-08-17T10:12:11.866Z,24.00
2018-08-17T10:14:40.947Z,24.10
2018-08-17T10:17:10.112Z,24.20
2018-08-17T10:19:39.151Z,24.30
2018-08-17T10:22:08.543Z,24.40
2018-08-17T10:24:37.536Z,24.50
2018-08-17T10:27:06.625Z,24.60
2018-08-17T10:29:35.827Z,24.70
2018-08-17T10:32:05.050Z,24.80
2018-08-17T10:34:34.113Z,24.90
2018-08-17T10:37:03.117Z,25.00
2018-08-17T10:39:31.909Z,25.20
2018-08-17T10:42:01.092Z,25.60
2018-08-17T10:44:30.205Z,25.80
2018-08-17T10:46:59.028Z,25.80
2018-08-17T10:49:27.824Z,26.00
2018-08-17T10:51:57.285Z,26.20
2018-08-17T10:54:26.414Z,26.30
2018-08-17T10:56:55.278Z,26.50
2018-08-17T10:59:24.046Z,26.50
2018-08-17T11:01:52.790Z,26.80
2018-08-17T11:04:21.625Z,26.90
2018-08-17T11:06:50.453Z,27.00
2018-08-17T11:09:19.250Z,27.10
2018-08-17T11:11:48.012Z,27.20
2018-08-17T11:14:16.805Z,27.40
2018-08-17T11:16:45.661Z,27.50
2018-08-17T11:19:14.468Z,27.60
2018-08-17T11:21:43.256Z,27.70
2018-08-17T11:24:12.079Z,27.80
2018-08-17T11:26:40.869Z,27.90
2018-08-17T11:29:09.695Z,28.00
2018-08-17T11:31:38.474Z,28.10
2018-08-17T11:34:07.325Z,28.20
2018-08-17T11:36:36.170Z,28.30
2018-08-17T11:39:06.479Z,28.40
2018-08-17T11:41:35.308Z,28.60
2018-08-17T11:44:07.763Z,28.80
2018-08-17T11:46:36.593Z,28.90
2018-08-17T11:49:05.625Z,28.90
2018-08-17T11:51:35.519Z,29.00
2018-08-17T11:54:04.357Z,29.20
2018-08-17T11:56:33.203Z,29.30
2018-08-17T11:59:02.027Z,29.40
2018-08-17T12:01:30.981Z,29.50
2018-08-17T12:03:59.943Z,29.70
2018-08-17T12:06:28.780Z,29.90
2018-08-17T12:08:57.565Z,30.10
2018-08-17T12:11:26.395Z,30.20
2018-08-17T12:13:55.177Z,30.20
2018-08-17T12:16:23.985Z,30.40
2018-08-17T12:18:52.881Z,30.50
2018-08-17T12:21:21.644Z,30.70
2018-08-17T12:23:50.417Z,30.70
2018-08-17T12:26:19.234Z,30.80
2018-08-17T12:28:48.076Z,31.00
2018-08-17T12:31:16.891Z,31.10
2018-08-17T12:33:45.681Z,31.20
2018-08-17T12:36:14.471Z,31.20
2018-08-17T12:38:43.260Z,31.30
2018-08-17T12:41:12.075Z,31.30
2018-08-17T12:43:40.892Z,31.40
2018-08-17T12:46:09.733Z,31.30
2018-08-17T12:48:38.539Z,31.40
2018-08-17T12:51:08.351Z,31.40
2018-08-17T12:53:37.204Z,31.60
2018-08-17T12:56:06.030Z,31.70
2018-08-17T12:58:34.890Z,31.90
2018-08-17T13:01:03.764Z,31.80
2018-08-17T13:03:32.573Z,32.00
2018-08-17T13:06:01.383Z,32.20
2018-08-17T13:08:30.218Z,32.20
2018-08-17T13:10:59.605Z,32.30
2018-08-17T13:13:28.515Z,32.40
2018-08-17T13:16:02.543Z,32.50
2018-08-17T13:18:34.357Z,32.60
2018-08-17T13:21:03.167Z,32.50
2018-08-17T13:23:32.034Z,32.60
2018-08-17T13:26:00.844Z,32.80
2018-08-17T13:28:29.709Z,32.90
2018-08-17T13:30:58.544Z,33.00
2018-08-17T13:33:27.355Z,32.90
2018-08-17T13:35:56.220Z,33.10
2018-08-17T13:38:26.070Z,33.10
2018-08-17T13:40:54.878Z,33.20
2018-08-17T13:43:23.695Z,33.30
2018-08-17T13:45:52.532Z,33.30
2018-08-17T13:48:21.329Z,33.20
2018-08-17T13:50:50.118Z,33.20
2018-08-17T13:53:18.909Z,33.30
2018-08-17T13:55:47.735Z,33.40
2018-08-17T13:58:16.571Z,33.50
2018-08-17T14:00:45.414Z,33.70
2018-08-17T14:03:14.186Z,33.80
2018-08-17T14:05:43.047Z,33.80
2018-08-17T14:08:11.796Z,33.80
2018-08-17T14:10:40.600Z,33.80
2018-08-17T14:13:09.486Z,33.90
2018-08-17T14:15:38.339Z,34.00
2018-08-17T14:18:07.180Z,33.90
2018-08-17T14:20:36.012Z,33.80
2018-08-17T14:23:04.869Z,33.90
2018-08-17T14:25:34.788Z,33.90
2018-08-17T14:28:03.591Z,34.00
2018-08-17T14:30:32.452Z,34.00
2018-08-17T14:33:01.282Z,33.90
2018-08-17T14:35:30.113Z,33.80
2018-08-17T14:37:58.930Z,33.80
2018-08-17T14:40:27.801Z,33.90
2018-08-17T14:42:56.572Z,33.90
2018-08-17T14:45:25.423Z,33.90
2018-08-17T14:47:54.195Z,33.90
2018-08-17T14:50:23.127Z,34.00
2018-08-17T14:52:51.901Z,34.00
2018-08-17T14:55:20.766Z,34.00
2018-08-17T14:57:49.647Z,34.20
2018-08-17T15:00:18.474Z,34.20
2018-08-17T15:02:47.316Z,34.10
2018-08-17T15:05:16.434Z,34.10
2018-08-17T15:07:45.358Z,33.90
2018-08-17T15:10:14.903Z,34.00
2018-08-17T15:12:44.046Z,34.00
2018-08-17T15:15:13.417Z,33.90
2018-08-17T15:17:42.247Z,33.90
2018-08-17T15:20:12.504Z,33.60
2018-08-17T15:22:41.398Z,33.40
2018-08-17T15:25:10.268Z,33.40
2018-08-17T15:27:39.155Z,33.40
2018-08-17T15:30:10.369Z,33.50
2018-08-17T15:32:39.882Z,33.50
2018-08-17T15:35:09.181Z,33.60
2018-08-17T15:37:38.523Z,33.70
2018-08-17T15:40:09.471Z,33.60
2018-08-17T15:42:38.372Z,33.50
2018-08-17T15:45:08.305Z,33.10
2018-08-17T15:47:37.369Z,33.00
2018-08-17T15:50:08.434Z,32.90
2018-08-17T15:52:37.265Z,32.90
2018-08-17T15:55:06.080Z,33.00
2018-08-17T15:57:34.922Z,33.10
2018-08-17T16:00:03.919Z,33.10
2018-08-17T16:02:32.773Z,33.10
2018-08-17T16:05:01.608Z,33.10
2018-08-17T16:07:30.399Z,33.00
2018-08-17T16:09:59.182Z,32.90
2018-08-17T16:12:27.997Z,32.90
2018-08-17T16:14:56.868Z,32.80
2018-08-17T16:17:25.949Z,32.80
2018-08-17T16:19:54.707Z,32.80
2018-08-17T16:22:23.581Z,32.50
2018-08-17T16:24:52.588Z,32.40
2018-08-17T16:27:21.386Z,32.20
2018-08-17T16:29:50.265Z,32.20
2018-08-17T16:32:19.140Z,32.10
2018-08-17T16:34:47.973Z,32.00
2018-08-17T16:37:16.793Z,31.70
2018-08-17T16:39:50.825Z,31.50
2018-08-17T16:42:36.214Z,31.20
2018-08-17T16:45:07.018Z,31.00
2018-08-17T16:47:35.805Z,30.80
2018-08-17T16:50:05.220Z,30.70
2018-08-17T16:52:34.042Z,30.60
2018-08-17T16:55:02.882Z,30.60
2018-08-17T16:57:31.680Z,30.50
2018-08-17T17:00:00.517Z,30.40
2018-08-17T17:02:29.313Z,30.00
2018-08-17T17:04:58.484Z,29.70
2018-08-17T17:07:29.826Z,29.30
2018-08-17T17:09:58.737Z,29.20
2018-08-17T17:12:27.912Z,29.20
2018-08-17T17:15:10.663Z,29.00
2018-08-17T17:17:39.715Z,29.00
2018-08-17T17:20:09.384Z,28.90
2018-08-17T17:22:38.512Z,28.90
2018-08-17T17:25:12.654Z,28.90
2018-08-17T17:27:41.707Z,28.80
2018-08-17T17:30:10.539Z,28.70
2018-08-17T17:32:39.363Z,28.60
2018-08-17T17:35:08.263Z,28.50
2018-08-17T17:37:37.126Z,28.40
2018-08-17T17:40:07.550Z,28.40
2018-08-17T17:42:36.355Z,28.40
2018-08-17T17:45:07.824Z,28.30
2018-08-17T17:47:37.264Z,28.20
2018-08-17T17:50:06.375Z,28.10
2018-08-17T17:52:35.785Z,28.10
2018-08-17T17:55:04.980Z,28.20
2018-08-17T17:57:33.756Z,28.10
2018-08-17T18:00:02.586Z,28.10
2018-08-17T18:02:31.444Z,28.00
2018-08-17T18:05:00.253Z,28.00
2018-08-17T18:07:34.181Z,27.80
2018-08-17T18:10:03.842Z,27.60
2018-08-17T18:12:33.137Z,27.30
2018-08-17T18:15:02.233Z,27.20
2018-08-17T18:17:32.313Z,27.20
2018-08-17T18:20:01.162Z,27.10
2018-08-17T18:22:32.358Z,27.10
2018-08-17T18:25:06.345Z,27.00
2018-08-17T18:27:35.860Z,27.00
2018-08-17T18:30:05.173Z,26.90
2018-08-17T18:32:34.005Z,26.90
2018-08-17T18:35:03.032Z,26.90
2018-08-17T18:37:31.968Z,26.90
2018-08-17T18:40:01.074Z,26.50
2018-08-17T18:42:29.864Z,26.30
2018-08-17T18:44:59.162Z,26.10
2018-08-17T18:47:28.016Z,26.00
2018-08-17T18:49:57.198Z,26.00
2018-08-17T18:52:26.344Z,25.90
2018-08-17T18:54:55.215Z,25.80
2018-08-17T18:57:24.293Z,25.90
2018-08-17T18:59:53.419Z,25.70
2018-08-17T19:02:22.268Z,25.70
2018-08-17T19:04:51.053Z,25.60
2018-08-17T19:07:19.889Z,25.60
2018-08-17T19:09:48.867Z,25.60
2018-08-17T19:12:17.957Z,25.50
2018-08-17T19:14:48.946Z,25.40
2018-08-17T19:17:23.282Z,25.30
2018-08-17T19:19:53.207Z,25.40
2018-08-17T19:22:22.512Z,25.30
2018-08-17T19:24:52.836Z,25.30
2018-08-17T19:27:31.338Z,25.20
2018-08-17T19:30:00.363Z,25.10
2018-08-17T19:32:29.333Z,25.00
2018-08-17T19:34:58.369Z,24.90
2018-08-17T19:37:27.568Z,24.90
2018-08-17T19:39:56.650Z,24.90
2018-08-17T19:42:25.862Z,24.80
2018-08-17T19:44:55.036Z,24.80
2018-08-17T19:47:24.134Z,24.90
2018-08-17T19:49:53.329Z,24.90
2018-08-17T19:52:22.544Z,24.90
2018-08-17T19:54:51.551Z,24.90
2018-08-17T19:57:20.861Z,24.80
2018-08-17T19:59:49.973Z,24.80
2018-08-17T20:02:19.245Z,24.70
2018-08-17T20:04:48.521Z,24.60
2018-08-17T20:07:17.800Z,24.50
2018-08-17T20:09:46.829Z,24.50
2018-08-17T20:12:15.808Z,24.50
2018-08-17T20:14:45.086Z,24.40
2018-08-17T20:17:14.100Z,24.40
2018-08-17T20:19:49.124Z,24.40
2018-08-17T20:22:21.528Z,24.40
2018-08-17T20:24:50.567Z,24.40
2018-08-17T20:27:20.346Z,24.40
2018-08-17T20:29:49.637Z,24.40
2018-08-17T20:32:18.784Z,24.30
2018-08-17T20:34:49.403Z,24.30
2018-08-17T20:37:18.815Z,24.30
2018-08-17T20:39:48.118Z,24.20
2018-08-17T20:42:17.217Z,24.20
2018-08-17T20:44:46.272Z,24.20
2018-08-17T20:47:15.313Z,24.20
2018-08-17T20:49:44.435Z,24.20
2018-08-17T20:52:13.697Z,24.20
2018-08-17T20:54:43.025Z,24.10
2018-08-17T20:57:11.969Z,24.10
2018-08-17T20:59:41.104Z,24.20
2018-08-17T21:02:10.210Z,24.20
2018-08-17T21:04:39.292Z,24.00
2018-08-17T21:07:08.424Z,24.00
2018-08-17T21:09:37.561Z,24.10
2018-08-17T21:12:06.572Z,24.10
2018-08-17T21:14:35.687Z,24.00
2018-08-17T21:17:04.632Z,23.70
2018-08-17T21:19:40.990Z,23.30
2018-08-17T21:22:11.049Z,23.30
2018-08-17T21:24:40.356Z,23.40
2018-08-17T21:27:09.404Z,23.40
2018-08-17T21:29:38.691Z,23.40
2018-08-17T21:32:07.972Z,23.40
2018-08-17T21:34:37.139Z,23.30
2018-08-17T21:37:06.433Z,23.20
2018-08-17T21:39:35.747Z,23.20
2018-08-17T21:42:04.942Z,23.20
2018-08-17T21:44:34.058Z,23.10
2018-08-17T21:47:04.434Z,23.00
2018-08-17T21:49:34.105Z,23.00
2018-08-17T21:52:09.063Z,22.90
2018-08-17T21:54:38.356Z,22.90
2018-08-17T21:57:07.486Z,22.80
2018-08-17T21:59:41.675Z,22.70
2018-08-17T22:02:11.490Z,22.60
2018-08-17T22:04:40.604Z,22.70
2018-08-17T22:07:14.878Z,22.70
2018-08-17T22:09:44.418Z,22.80
2018-08-17T22:12:13.927Z,22.80
2018-08-17T22:14:45.147Z,22.80
2018-08-17T22:17:25.383Z,22.80
2018-08-17T22:19:54.548Z,22.80
2018-08-17T22:22:23.717Z,22.70
2018-08-17T22:24:54.810Z,22.60
2018-08-17T22:27:24.751Z,22.50
2018-08-17T22:29:55.890Z,22.40
2018-08-17T22:32:25.287Z,22.30
2018-08-17T22:34:54.573Z,22.10
2018-08-17T22:37:23.743Z,22.10
2018-08-17T22:39:52.713Z,22.10
2018-08-17T22:42:22.998Z,22.20
2018-08-17T22:44:52.317Z,22.20
2018-08-17T22:47:24.411Z,22.20
2018-08-17T22:49:54.989Z,22.20
2018-08-17T22:52:24.212Z,22.20
2018-08-17T22:55:00.544Z,22.20
2018-08-17T22:57:30.454Z,22.10
2018-08-17T23:00:14.865Z,22.10
2018-08-17T23:02:44.853Z,22.00
2018-08-17T23:05:15.982Z,22.10
2018-08-17T23:07:45.078Z,22.00
2018-08-17T23:10:16.074Z,21.90
2018-08-17T23:12:46.225Z,21.70
2018-08-17T23:15:15.538Z,21.60
2018-08-17T23:17:48.229Z,21.50
2018-08-17T23:20:21.498Z,21.50
2018-08-17T23:22:52.675Z,21.50
2018-08-17T23:25:21.831Z,21.60
2018-08-17T23:27:51.437Z,21.60
2018-08-17T23:30:20.804Z,21.70
2018-08-17T23:32:50.091Z,21.80
2018-08-17T23:35:19.357Z,21.70
2018-08-17T23:37:48.459Z,21.70
2018-08-17T23:40:17.621Z,21.70
2018-08-17T23:42:46.829Z,21.60
2018-08-17T23:45:17.176Z,21.40
2018-08-17T23:47:46.424Z,21.10
2018-08-17T23:50:16.209Z,21.00
2018-08-17T23:52:45.283Z,21.00
2018-08-17T23:55:16.936Z,20.90
2018-08-17T23:57:46.247Z,20.80
